createdAt,value
2022-08-29T00:01:15.308Z,19.53
2022-08-29T00:03:18.442Z,19.53
2022-08-29T00:05:24.971Z,19.51
2022-08-29T00:07:27.895Z,19.48
2022-08-29T00:09:30.587Z,19.50
2022-08-29T00:11:34.681Z,19.47
2022-08-29T00:13:37.298Z,19.43
2022-08-29T00:15:44.705Z,19.41
2022-08-29T00:17:48.490Z,19.40
2022-08-29T00:19:51.047Z,19.41
2022-08-29T00:21:54.036Z,19.37
2022-08-29T00:23:56.642Z,19.36
2022-08-29T00:25:59.254Z,19.32
2022-08-29T00:28:03.311Z,19.30
2022-08-29T00:30:07.508Z,19.32
2022-08-29T00:32:10.255Z,19.26
2022-08-29T00:34:12.948Z,19.22
2022-08-29T00:36:15.523Z,19.20
2022-08-29T00:38:19.196Z,19.19
2022-08-29T00:40:28.787Z,19.17
2022-08-29T00:42:31.524Z,19.14
2022-08-29T00:44:35.807Z,19.18
2022-08-29T00:46:47.797Z,19.11
2022-08-29T00:48:56.123Z,19.09
2022-08-29T00:51:04.347Z,19.06
2022-08-29T00:53:10.235Z,19.05
2022-08-29T00:55:15.897Z,19.03
2022-08-29T00:57:20.692Z,19.03
2022-08-29T00:59:27.748Z,19.07
2022-08-29T01:01:31.858Z,19.03
2022-08-29T01:03:36.896Z,18.98
2022-08-29T01:05:46.248Z,18.95
2022-08-29T01:07:49.490Z,18.93
2022-08-29T01:09:52.944Z,18.95
2022-08-29T01:12:13.432Z,18.96
2022-08-29T01:14:15.409Z,18.92
2022-08-29T01:16:20.569Z,18.90
2022-08-29T01:18:30.267Z,18.86
2022-08-29T01:20:40.351Z,18.84
2022-08-29T01:22:56.769Z,18.78
2022-08-29T01:25:01.213Z,18.77
2022-08-29T01:27:04.122Z,18.77
2022-08-29T01:29:06.704Z,18.77
2022-08-29T01:31:12.856Z,18.75
2022-08-29T01:33:15.459Z,18.72
2022-08-29T01:35:18.114Z,18.69
2022-08-29T01:37:21.437Z,18.63
2022-08-29T01:39:27.027Z,18.65
2022-08-29T01:41:32.879Z,18.66
2022-08-29T01:43:41.617Z,18.60
2022-08-29T01:45:43.299Z,18.60
2022-08-29T01:47:45.918Z,18.60
2022-08-29T01:49:48.661Z,18.57
2022-08-29T01:51:51.700Z,18.53
2022-08-29T01:53:54.615Z,18.51
2022-08-29T01:55:57.164Z,18.55
2022-08-29T01:58:01.114Z,18.45
2022-08-29T02:00:05.593Z,18.47
2022-08-29T02:02:15.515Z,18.39
2022-08-29T02:04:18.619Z,18.36
2022-08-29T02:06:21.461Z,18.35
2022-08-29T02:08:24.061Z,18.34
2022-08-29T02:10:26.814Z,18.36
2022-08-29T02:12:31.661Z,18.36
2022-08-29T02:14:36.221Z,18.31
2022-08-29T02:16:38.906Z,18.31
2022-08-29T02:18:42.375Z,18.31
2022-08-29T02:20:45.099Z,18.25
2022-08-29T02:22:47.769Z,18.23
2022-08-29T02:24:50.339Z,18.26
2022-08-29T02:26:53.713Z,18.24
2022-08-29T02:28:57.465Z,18.25
2022-08-29T02:31:01.683Z,18.22
2022-08-29T02:33:04.945Z,18.21
2022-08-29T02:35:09.124Z,18.18
2022-08-29T02:37:15.141Z,18.17
2022-08-29T02:39:19.341Z,18.14
2022-08-29T02:41:21.988Z,18.11
2022-08-29T02:43:25.543Z,18.08
2022-08-29T02:45:28.818Z,18.03
2022-08-29T02:47:33.795Z,17.95
2022-08-29T02:49:36.374Z,17.90
2022-08-29T02:51:38.971Z,17.94
2022-08-29T02:53:41.550Z,17.92
2022-08-29T02:55:47.996Z,18.00
2022-08-29T02:57:52.103Z,18.06
2022-08-29T02:59:54.697Z,18.08
2022-08-29T03:01:57.415Z,18.06
2022-08-29T03:04:02.194Z,18.08
2022-08-29T03:06:05.328Z,18.08
2022-08-29T03:08:10.529Z,18.10
2022-08-29T03:10:13.387Z,18.12
2022-08-29T03:12:15.998Z,18.10
2022-08-29T03:14:18.547Z,18.08
2022-08-29T03:16:21.184Z,18.07
2022-08-29T03:18:24.226Z,18.08
2022-08-29T03:20:28.198Z,18.07
2022-08-29T03:22:30.797Z,18.03
2022-08-29T03:24:35.507Z,18.03
2022-08-29T03:26:38.247Z,18.01
2022-08-29T03:28:40.873Z,17.99
2022-08-29T03:30:43.485Z,18.01
2022-08-29T03:32:47.044Z,18.00
2022-08-29T03:34:49.621Z,17.99
2022-08-29T03:36:53.576Z,17.99
2022-08-29T03:38:56.201Z,17.97
2022-08-29T03:40:58.776Z,17.94
2022-08-29T03:43:03.263Z,17.88
2022-08-29T03:45:08.459Z,17.86
2022-08-29T03:47:11.348Z,17.86
2022-08-29T03:49:15.569Z,17.82
2022-08-29T03:51:18.878Z,17.81
2022-08-29T03:53:22.934Z,17.81
2022-08-29T03:55:25.706Z,17.79
2022-08-29T03:57:33.083Z,17.75
2022-08-29T03:59:36.555Z,17.74
2022-08-29T04:01:39.336Z,17.71
2022-08-29T04:03:41.940Z,17.66
2022-08-29T04:05:44.526Z,17.64
2022-08-29T04:07:51.046Z,17.63
2022-08-29T04:09:54.981Z,17.58
2022-08-29T04:11:57.627Z,17.58
2022-08-29T04:14:00.323Z,17.52
2022-08-29T04:16:02.993Z,17.51
2022-08-29T04:18:08.177Z,17.47
2022-08-29T04:20:12.665Z,17.44
2022-08-29T04:22:15.304Z,17.42
2022-08-29T04:24:19.572Z,17.42
2022-08-29T04:26:38.957Z,17.41
2022-08-29T04:28:41.667Z,17.41
2022-08-29T04:30:51.857Z,17.37
2022-08-29T04:32:55.771Z,17.36
2022-08-29T04:34:58.840Z,17.36
2022-08-29T04:37:01.549Z,17.35
2022-08-29T04:39:05.890Z,17.34
2022-08-29T04:41:08.630Z,17.38
2022-08-29T04:43:12.886Z,17.35
2022-08-29T04:45:17.899Z,17.30
2022-08-29T04:47:22.196Z,17.29
2022-08-29T04:49:24.801Z,17.31
2022-08-29T04:51:27.740Z,17.29
2022-08-29T04:53:30.940Z,17.24
2022-08-29T04:55:33.527Z,17.22
2022-08-29T04:57:37.084Z,17.23
2022-08-29T04:59:41.038Z,17.21
2022-08-29T05:01:44.492Z,17.25
2022-08-29T05:03:49.551Z,17.28
2022-08-29T05:05:57.613Z,17.27
2022-08-29T05:08:00.232Z,17.27
2022-08-29T05:10:07.430Z,17.25
2022-08-29T05:12:10.468Z,17.23
2022-08-29T05:14:13.032Z,17.23
2022-08-29T05:16:18.573Z,17.26
2022-08-29T05:18:21.477Z,17.30
2022-08-29T05:20:24.071Z,17.32
2022-08-29T05:22:26.805Z,17.33
2022-08-29T05:24:31.409Z,17.31
2022-08-29T05:26:36.585Z,17.29
2022-08-29T05:28:39.178Z,17.32
2022-08-29T05:30:45.018Z,17.34
2022-08-29T05:32:49.031Z,17.36
2022-08-29T05:34:51.707Z,17.41
2022-08-29T05:36:54.416Z,17.44
2022-08-29T05:38:56.999Z,17.46
2022-08-29T05:41:00.096Z,17.49
2022-08-29T05:43:02.842Z,17.46
2022-08-29T05:45:06.223Z,17.51
2022-08-29T05:47:11.379Z,17.54
2022-08-29T05:49:15.264Z,17.56
2022-08-29T05:51:19.030Z,17.60
2022-08-29T05:53:21.810Z,17.62
2022-08-29T05:55:25.436Z,17.65
2022-08-29T05:57:28.140Z,17.68
2022-08-29T05:59:30.871Z,17.69
2022-08-29T06:01:34.532Z,17.74
2022-08-29T06:03:37.227Z,17.76
2022-08-29T06:05:42.437Z,17.82
2022-08-29T06:07:45.052Z,17.84
2022-08-29T06:09:47.680Z,17.86
2022-08-29T06:11:53.169Z,17.87
2022-08-29T06:13:56.999Z,17.89
2022-08-29T06:15:59.653Z,17.92
2022-08-29T06:18:02.359Z,17.96
2022-08-29T06:20:09.770Z,17.97
2022-08-29T06:22:13.686Z,18.00
2022-08-29T06:24:17.329Z,18.03
2022-08-29T06:26:20.664Z,18.02
2022-08-29T06:28:24.058Z,17.87
2022-08-29T06:30:27.142Z,17.94
2022-08-29T06:32:29.932Z,17.89
2022-08-29T06:34:32.555Z,17.89
2022-08-29T06:36:36.898Z,18.00
2022-08-29T06:38:41.195Z,18.01
2022-08-29T06:40:43.799Z,18.06
2022-08-29T06:42:46.475Z,18.04
2022-08-29T06:44:49.049Z,18.12
2022-08-29T06:46:51.660Z,18.13
2022-08-29T06:48:56.033Z,18.10
2022-08-29T06:51:01.102Z,18.15
2022-08-29T06:53:26.528Z,18.20
2022-08-29T06:55:28.021Z,18.12
2022-08-29T06:57:30.796Z,18.16
2022-08-29T06:59:33.565Z,18.20
2022-08-29T07:01:36.579Z,18.26
2022-08-29T07:03:39.716Z,18.28
2022-08-29T07:05:42.408Z,18.21
2022-08-29T07:07:46.726Z,18.26
2022-08-29T07:09:51.256Z,18.32
2022-08-29T07:11:55.289Z,18.37
2022-08-29T07:13:59.230Z,18.41
2022-08-29T07:16:04.570Z,18.45
2022-08-29T07:18:07.206Z,18.49
2022-08-29T07:20:14.005Z,18.52
2022-08-29T07:22:16.568Z,18.50
2022-08-29T07:24:24.239Z,18.53
2022-08-29T07:26:30.580Z,18.55
2022-08-29T07:28:34.964Z,18.56
2022-08-29T07:30:40.521Z,18.59
2022-08-29T07:32:45.238Z,18.64
2022-08-29T07:34:47.804Z,18.63
2022-08-29T07:36:50.396Z,18.66
2022-08-29T07:38:53.022Z,18.69
2022-08-29T07:40:59.469Z,18.70
2022-08-29T07:43:02.189Z,18.73
2022-08-29T07:45:09.436Z,18.78
2022-08-29T07:47:12.062Z,18.80
2022-08-29T07:49:15.260Z,18.83
2022-08-29T07:51:20.125Z,18.87
2022-08-29T07:53:22.742Z,18.88
2022-08-29T07:55:25.452Z,18.92
2022-08-29T07:57:28.785Z,18.97
2022-08-29T07:59:31.735Z,19.01
2022-08-29T08:01:36.076Z,19.04
2022-08-29T08:03:39.008Z,19.08
2022-08-29T08:05:41.571Z,19.13
2022-08-29T08:07:44.175Z,19.17
2022-08-29T08:09:49.915Z,19.20
2022-08-29T08:11:52.497Z,19.22
2022-08-29T08:13:56.056Z,19.25
2022-08-29T08:15:58.789Z,19.29
2022-08-29T08:18:02.745Z,19.32
2022-08-29T08:20:07.598Z,19.37
2022-08-29T08:22:10.156Z,19.45
2022-08-29T08:24:16.118Z,19.46
2022-08-29T08:26:22.415Z,19.49
2022-08-29T08:28:25.103Z,19.50
2022-08-29T08:30:27.770Z,19.52
2022-08-29T08:32:32.493Z,19.59
2022-08-29T08:34:36.817Z,19.69
2022-08-29T08:36:41.443Z,19.66
2022-08-29T08:38:44.424Z,19.68
2022-08-29T08:40:50.578Z,19.71
2022-08-29T08:43:00.331Z,19.74
2022-08-29T08:45:10.395Z,19.78
2022-08-29T08:47:15.681Z,19.80
2022-08-29T08:49:23.763Z,19.82
2022-08-29T08:51:31.774Z,19.86
2022-08-29T08:53:39.561Z,19.93
2022-08-29T08:55:44.420Z,19.94
2022-08-29T08:57:55.731Z,19.98
2022-08-29T08:59:59.686Z,20.00
2022-08-29T09:02:09.973Z,20.07
2022-08-29T09:04:42.268Z,20.12
2022-08-29T09:07:00.352Z,20.16
2022-08-29T09:09:18.381Z,20.21
2022-08-29T09:11:29.780Z,20.23
2022-08-29T09:13:43.675Z,20.26
2022-08-29T09:15:48.343Z,20.30
2022-08-29T09:17:53.728Z,20.34
2022-08-29T09:19:58.296Z,20.37
2022-08-29T09:22:12.017Z,20.41
2022-08-29T09:24:24.410Z,20.50
2022-08-29T09:26:28.314Z,20.54
2022-08-29T09:28:31.270Z,20.65
2022-08-29T09:30:36.375Z,20.62
2022-08-29T09:33:01.613Z,20.64
2022-08-29T09:35:19.617Z,20.66
2022-08-29T09:37:27.047Z,20.73
2022-08-29T09:39:32.061Z,20.76
2022-08-29T09:41:34.730Z,20.79
2022-08-29T09:43:48.119Z,20.82
2022-08-29T09:46:16.266Z,20.86
2022-08-29T09:48:18.996Z,20.90
2022-08-29T09:50:25.319Z,20.96
2022-08-29T09:52:29.221Z,21.02
2022-08-29T09:54:32.192Z,21.03
2022-08-29T09:56:38.273Z,21.09
2022-08-29T09:58:42.684Z,21.13
2022-08-29T10:01:01.320Z,21.32
2022-08-29T10:03:07.595Z,21.32
2022-08-29T10:05:26.695Z,21.34
2022-08-29T10:07:32.992Z,21.37
2022-08-29T10:09:40.219Z,21.39
2022-08-29T10:11:54.274Z,21.44
2022-08-29T10:14:05.064Z,21.47
2022-08-29T10:16:17.369Z,21.50
2022-08-29T10:18:32.559Z,21.52
2022-08-29T10:20:50.047Z,21.56
2022-08-29T10:23:00.518Z,21.59
2022-08-29T10:25:09.798Z,21.72
2022-08-29T10:27:24.956Z,21.73
2022-08-29T10:29:54.673Z,21.78
2022-08-29T10:32:10.463Z,21.81
2022-08-29T10:34:32.823Z,21.85
2022-08-29T10:36:39.747Z,21.89
2022-08-29T10:38:49.271Z,21.93
2022-08-29T10:40:58.524Z,22.07
2022-08-29T10:43:30.058Z,22.10
2022-08-29T10:45:40.996Z,22.23
2022-08-29T10:47:52.198Z,22.25
2022-08-29T10:50:10.109Z,22.28
2022-08-29T10:52:28.388Z,22.34
2022-08-29T10:54:37.745Z,22.37
2022-08-29T10:56:44.121Z,22.43
2022-08-29T10:58:57.413Z,22.46
2022-08-29T11:01:11.915Z,22.55
2022-08-29T11:03:26.609Z,22.58
2022-08-29T11:05:43.817Z,22.61
2022-08-29T11:07:51.535Z,22.62
2022-08-29T11:10:00.198Z,22.62
2022-08-29T11:12:08.769Z,22.69
2022-08-29T11:14:21.501Z,22.70
2022-08-29T11:16:30.388Z,22.71
2022-08-29T11:18:43.232Z,22.78
2022-08-29T11:20:50.186Z,22.83
2022-08-29T11:22:57.268Z,22.87
2022-08-29T11:25:07.652Z,22.92
2022-08-29T11:27:18.494Z,22.98
2022-08-29T11:29:31.111Z,23.04
2022-08-29T11:31:46.051Z,23.07
2022-08-29T11:33:56.499Z,23.13
2022-08-29T11:36:25.933Z,23.15
2022-08-29T11:38:47.519Z,23.17
2022-08-29T11:41:27.159Z,23.19
2022-08-29T11:43:36.204Z,23.21
2022-08-29T11:45:41.424Z,23.24
2022-08-29T11:48:00.075Z,23.34
2022-08-29T11:50:08.952Z,23.40
2022-08-29T11:52:21.876Z,23.49
2022-08-29T11:54:49.964Z,23.57
2022-08-29T11:57:37.485Z,23.57
2022-08-29T11:59:59.445Z,23.55
2022-08-29T12:02:02.322Z,23.62
2022-08-29T12:04:06.247Z,23.54
2022-08-29T12:06:18.707Z,23.50
2022-08-29T12:08:37.399Z,23.65
2022-08-29T12:10:52.445Z,23.65
2022-08-29T12:12:57.489Z,23.73
2022-08-29T12:15:01.424Z,23.73
2022-08-29T12:17:06.694Z,23.77
2022-08-29T12:19:09.350Z,23.99
2022-08-29T12:21:45.561Z,24.02
2022-08-29T12:23:48.289Z,23.93
2022-08-29T12:28:37.102Z,24.10
2022-08-29T12:30:44.970Z,24.13
2022-08-29T12:32:58.543Z,24.30
2022-08-29T12:35:30.542Z,24.44
2022-08-29T12:37:50.707Z,24.59
2022-08-29T12:40:33.205Z,24.81
2022-08-29T12:42:47.313Z,24.99
2022-08-29T12:45:00.465Z,25.26
2022-08-29T12:47:08.431Z,25.51
2022-08-29T12:49:21.003Z,25.79
2022-08-29T12:51:37.164Z,26.15
2022-08-29T12:53:39.770Z,26.51
2022-08-29T12:55:44.965Z,26.94
2022-08-29T12:57:48.539Z,27.42
2022-08-29T12:59:53.357Z,28.00
2022-08-29T13:01:58.396Z,28.57
2022-08-29T13:04:06.824Z,29.11
2022-08-29T13:06:14.561Z,29.47
2022-08-29T13:08:28.693Z,29.98
2022-08-29T13:10:31.300Z,30.27
2022-08-29T13:12:36.852Z,30.79
2022-08-29T13:14:56.532Z,31.24
2022-08-29T13:16:59.368Z,31.44
2022-08-29T13:19:11.745Z,31.63
2022-08-29T13:21:23.195Z,31.77
2022-08-29T13:23:28.848Z,31.93
2022-08-29T13:25:32.420Z,32.24
2022-08-29T13:27:35.009Z,32.81
2022-08-29T13:29:39.866Z,33.04
2022-08-29T13:31:42.630Z,32.88
2022-08-29T13:34:19.349Z,33.19
2022-08-29T13:36:33.245Z,33.44
2022-08-29T13:38:35.845Z,33.76
2022-08-29T13:40:46.019Z,33.95
2022-08-29T13:42:48.708Z,33.87
2022-08-29T13:45:22.626Z,33.96
2022-08-29T13:47:28.696Z,34.16
2022-08-29T13:49:34.969Z,34.14
2022-08-29T13:51:37.535Z,34.20
2022-08-29T13:53:40.243Z,34.48
2022-08-29T13:55:48.288Z,34.39
2022-08-29T13:57:54.617Z,34.59
2022-08-29T13:59:58.525Z,34.77
2022-08-29T14:02:10.046Z,34.86
2022-08-29T14:04:36.773Z,35.00
2022-08-29T14:06:37.794Z,34.97
2022-08-29T14:08:45.184Z,35.06
2022-08-29T14:10:48.067Z,35.01
2022-08-29T14:15:13.261Z,34.65
2022-08-29T14:17:18.690Z,34.72
2022-08-29T14:19:21.715Z,34.63
2022-08-29T14:21:24.652Z,34.27
2022-08-29T14:23:28.600Z,33.93
2022-08-29T14:25:32.473Z,33.20
2022-08-29T14:27:35.541Z,32.54
2022-08-29T14:29:38.399Z,31.98
2022-08-29T14:31:41.156Z,31.76
2022-08-29T14:33:43.727Z,31.62
2022-08-29T14:35:47.720Z,31.56
2022-08-29T14:37:50.495Z,31.65
2022-08-29T14:39:54.442Z,31.58
2022-08-29T14:41:57.097Z,31.57
2022-08-29T14:43:59.980Z,31.63
2022-08-29T14:46:02.605Z,31.66
2022-08-29T14:48:06.383Z,32.10
2022-08-29T14:50:09.627Z,31.80
2022-08-29T14:52:14.895Z,31.69
2022-08-29T14:54:18.086Z,31.56
2022-08-29T14:56:47.053Z,31.55
2022-08-29T14:58:48.074Z,31.53
2022-08-29T15:00:51.369Z,31.49
2022-08-29T15:02:57.160Z,31.39
2022-08-29T15:04:59.760Z,31.38
2022-08-29T15:07:02.609Z,31.29
2022-08-29T15:09:05.479Z,31.23
2022-08-29T15:11:08.113Z,31.42
2022-08-29T15:13:12.094Z,31.19
2022-08-29T15:15:14.985Z,31.13
2022-08-29T15:17:18.056Z,31.09
2022-08-29T15:21:44.613Z,31.04
2022-08-29T15:23:48.913Z,30.94
2022-08-29T15:25:51.744Z,30.97
2022-08-29T15:27:54.845Z,30.95
2022-08-29T15:29:59.261Z,30.89
2022-08-29T15:32:02.158Z,30.83
2022-08-29T15:34:05.931Z,30.75
2022-08-29T15:36:09.396Z,30.67
2022-08-29T15:38:12.092Z,30.58
2022-08-29T15:40:15.727Z,30.54
2022-08-29T15:42:18.444Z,30.48
2022-08-29T15:44:21.072Z,30.40
2022-08-29T15:46:26.913Z,30.33
2022-08-29T15:48:29.557Z,30.63
2022-08-29T15:50:32.146Z,30.55
2022-08-29T15:52:35.455Z,30.47
2022-08-29T15:54:38.166Z,30.43
2022-08-29T15:56:40.857Z,30.36
2022-08-29T15:58:43.865Z,30.31
2022-08-29T16:00:50.287Z,30.22
2022-08-29T16:02:54.562Z,30.15
2022-08-29T16:04:57.753Z,30.06
2022-08-29T16:07:00.472Z,29.96
2022-08-29T16:09:03.953Z,29.86
2022-08-29T16:11:18.238Z,29.97
2022-08-29T16:13:21.150Z,29.80
2022-08-29T16:15:23.887Z,29.72
2022-08-29T16:17:26.534Z,29.56
2022-08-29T16:19:30.546Z,29.42
2022-08-29T16:21:34.645Z,29.26
2022-08-29T16:23:37.260Z,29.16
2022-08-29T16:25:44.209Z,29.09
2022-08-29T16:27:47.047Z,28.96
2022-08-29T16:29:49.624Z,28.84
2022-08-29T16:31:52.640Z,28.76
2022-08-29T16:33:55.335Z,28.68
2022-08-29T16:36:01.098Z,28.60
2022-08-29T16:38:03.828Z,28.59
2022-08-29T16:40:07.968Z,28.50
2022-08-29T16:42:12.185Z,28.50
2022-08-29T16:44:14.808Z,28.46
2022-08-29T16:46:18.343Z,28.40
2022-08-29T16:48:21.124Z,28.34
2022-08-29T16:50:23.955Z,28.27
2022-08-29T16:52:28.176Z,28.21
2022-08-29T16:54:33.121Z,28.16
2022-08-29T16:56:35.987Z,28.09
2022-08-29T16:58:56.378Z,28.07
2022-08-29T17:00:59.126Z,28.03
2022-08-29T17:03:01.869Z,27.96
2022-08-29T17:05:04.900Z,27.91
2022-08-29T17:07:07.896Z,27.87
2022-08-29T17:09:10.747Z,27.79
2022-08-29T17:11:12.368Z,27.71
2022-08-29T17:13:13.987Z,27.72
2022-08-29T17:15:15.551Z,27.60
2022-08-29T17:17:18.282Z,27.50
2022-08-29T17:19:21.991Z,27.46
2022-08-29T17:21:25.819Z,27.38
2022-08-29T17:23:29.617Z,27.32
2022-08-29T17:25:33.780Z,27.23
2022-08-29T17:27:36.793Z,27.15
2022-08-29T17:29:41.965Z,27.08
2022-08-29T17:31:44.584Z,27.00
2022-08-29T17:33:48.095Z,26.93
2022-08-29T17:35:50.872Z,26.85
2022-08-29T17:37:54.081Z,26.79
2022-08-29T17:39:57.025Z,26.74
2022-08-29T17:42:01.304Z,26.70
2022-08-29T17:44:06.763Z,26.63
2022-08-29T17:46:09.786Z,26.58
2022-08-29T17:48:12.677Z,26.52
2022-08-29T17:50:16.244Z,26.46
2022-08-29T17:52:19.148Z,26.40
2022-08-29T17:54:23.769Z,26.33
2022-08-29T17:56:30.310Z,26.27
2022-08-29T17:58:35.396Z,26.19
2022-08-29T18:00:38.040Z,26.13
2022-08-29T18:02:41.738Z,26.11
2022-08-29T18:04:46.777Z,26.04
2022-08-29T18:06:51.754Z,26.02
2022-08-29T18:08:54.353Z,25.98
2022-08-29T18:10:57.044Z,25.92
2022-08-29T18:12:59.892Z,25.86
2022-08-29T18:15:06.062Z,25.79
2022-08-29T18:17:08.870Z,25.73
2022-08-29T18:19:13.526Z,25.65
2022-08-29T18:21:18.614Z,25.59
2022-08-29T18:23:21.288Z,25.66
2022-08-29T18:25:24.002Z,25.52
2022-08-29T18:27:28.005Z,25.49
2022-08-29T18:29:30.562Z,25.40
2022-08-29T18:31:34.485Z,25.33
2022-08-29T18:33:57.179Z,25.29
2022-08-29T18:36:00.010Z,25.22
2022-08-29T18:38:02.625Z,25.16
2022-08-29T18:40:08.331Z,25.12
2022-08-29T18:42:30.438Z,25.12
2022-08-29T18:44:33.703Z,25.00
2022-08-29T18:46:40.877Z,25.03
2022-08-29T18:48:44.816Z,25.06
2022-08-29T18:50:48.487Z,25.08
2022-08-29T18:52:51.106Z,25.09
2022-08-29T18:54:54.255Z,25.09
2022-08-29T18:56:56.959Z,25.10
2022-08-29T18:58:59.804Z,25.12
2022-08-29T19:01:11.373Z,24.95
2022-08-29T19:03:15.581Z,24.91
2022-08-29T19:05:18.888Z,24.70
2022-08-29T19:07:24.475Z,24.58
2022-08-29T19:09:27.136Z,24.51
2022-08-29T19:11:29.823Z,24.44
2022-08-29T19:13:32.524Z,24.42
2022-08-29T19:15:41.265Z,24.40
2022-08-29T19:17:44.230Z,24.47
2022-08-29T19:20:10.017Z,24.57
2022-08-29T19:22:13.453Z,24.55
2022-08-29T19:24:16.065Z,24.54
2022-08-29T19:26:21.532Z,24.41
2022-08-29T19:28:24.269Z,24.33
2022-08-29T19:30:27.775Z,24.18
2022-08-29T19:32:30.348Z,24.12
2022-08-29T19:34:32.978Z,24.11
2022-08-29T19:36:39.093Z,23.96
2022-08-29T19:38:42.338Z,24.03
2022-08-29T19:40:45.770Z,24.13
2022-08-29T19:42:49.717Z,24.17
2022-08-29T19:44:52.364Z,24.13
2022-08-29T19:46:55.213Z,24.01
2022-08-29T19:48:57.895Z,24.00
2022-08-29T19:51:00.677Z,23.86
2022-08-29T19:53:05.316Z,23.82
2022-08-29T19:55:10.918Z,23.81
2022-08-29T19:57:14.705Z,23.74
2022-08-29T19:59:18.130Z,23.65
2022-08-29T20:01:21.433Z,23.44
2022-08-29T20:03:24.214Z,23.51
2022-08-29T20:05:27.105Z,23.57
2022-08-29T20:07:30.535Z,23.62
2022-08-29T20:09:35.966Z,23.69
2022-08-29T20:11:42.886Z,23.71
2022-08-29T20:13:50.612Z,23.72
2022-08-29T20:15:54.098Z,23.51
2022-08-29T20:17:57.370Z,23.42
2022-08-29T20:20:00.555Z,23.57
2022-08-29T20:22:03.288Z,23.46
2022-08-29T20:24:07.261Z,23.43
2022-08-29T20:26:12.771Z,23.45
2022-08-29T20:28:15.893Z,23.49
2022-08-29T20:30:24.947Z,23.56
2022-08-29T20:32:27.558Z,23.64
2022-08-29T20:34:30.575Z,23.69
2022-08-29T20:36:50.875Z,23.69
2022-08-29T20:38:53.445Z,23.62
2022-08-29T20:40:56.030Z,23.50
2022-08-29T20:43:00.250Z,23.51
2022-08-29T20:45:02.879Z,23.46
2022-08-29T20:47:06.928Z,23.39
2022-08-29T20:49:10.503Z,23.38
2022-08-29T20:51:13.248Z,23.38
2022-08-29T20:53:32.565Z,23.31
2022-08-29T20:55:36.560Z,23.25
2022-08-29T20:57:40.340Z,23.26
2022-08-29T20:59:44.842Z,23.44
2022-08-29T21:01:47.950Z,23.38
2022-08-29T21:04:08.113Z,23.20
2022-08-29T21:06:12.076Z,23.09
2022-08-29T21:08:17.635Z,23.09
2022-08-29T21:10:20.611Z,23.15
2022-08-29T21:12:27.651Z,23.22
2022-08-29T21:14:30.304Z,23.18
2022-08-29T21:16:36.233Z,23.16
2022-08-29T21:18:39.399Z,23.02
2022-08-29T21:20:53.924Z,23.03
2022-08-29T21:22:58.586Z,23.00
2022-08-29T21:25:01.195Z,23.00
2022-08-29T21:27:03.845Z,22.91
2022-08-29T21:29:08.254Z,22.92
2022-08-29T21:31:13.268Z,22.76
2022-08-29T21:33:17.387Z,22.62
2022-08-29T21:35:20.632Z,22.73
2022-08-29T21:37:24.560Z,22.59
2022-08-29T21:39:28.943Z,22.55
2022-08-29T21:41:32.362Z,22.47
2022-08-29T21:43:35.072Z,22.39
2022-08-29T21:45:37.681Z,22.31
2022-08-29T21:47:40.342Z,22.32
2022-08-29T21:49:44.249Z,22.06
2022-08-29T21:51:48.272Z,22.03
2022-08-29T21:53:52.913Z,21.94
2022-08-29T21:55:55.492Z,21.96
2022-08-29T21:57:59.715Z,22.02
2022-08-29T22:00:02.345Z,22.09
2022-08-29T22:02:05.263Z,22.19
2022-08-29T22:04:09.994Z,22.17
2022-08-29T22:06:15.078Z,22.15
2022-08-29T22:08:17.734Z,22.19
2022-08-29T22:10:24.424Z,22.18
2022-08-29T22:12:28.715Z,22.17
2022-08-29T22:14:49.196Z,22.21
2022-08-29T22:16:51.850Z,22.25
2022-08-29T22:18:54.807Z,22.32
2022-08-29T22:20:58.269Z,22.33
2022-08-29T22:23:02.268Z,22.37
2022-08-29T22:25:05.841Z,22.32
2022-08-29T22:27:09.212Z,22.14
2022-08-29T22:29:13.627Z,22.20
2022-08-29T22:31:16.680Z,22.10
2022-08-29T22:33:19.428Z,22.06
2022-08-29T22:35:23.367Z,22.00
2022-08-29T22:37:26.061Z,21.99
2022-08-29T22:39:30.071Z,22.02
2022-08-29T22:41:33.014Z,22.10
2022-08-29T22:43:35.622Z,22.17
2022-08-29T22:45:38.224Z,22.08
2022-08-29T22:47:42.826Z,21.93
2022-08-29T22:49:45.832Z,21.98
2022-08-29T22:51:48.981Z,22.08
2022-08-29T22:54:06.088Z,22.13
2022-08-29T22:56:10.537Z,22.13
2022-08-29T22:58:13.185Z,22.14
2022-08-29T23:00:21.533Z,22.11
2022-08-29T23:02:24.599Z,22.09
2022-08-29T23:04:27.238Z,22.08
2022-08-29T23:06:30.707Z,22.12
2022-08-29T23:08:33.379Z,22.11
2022-08-29T23:10:36.311Z,22.14
2022-08-29T23:12:40.553Z,22.15
2022-08-29T23:14:46.374Z,22.08
2022-08-29T23:16:49.567Z,22.02
2022-08-29T23:18:52.585Z,21.99
2022-08-29T23:20:55.203Z,21.95
2022-08-29T23:22:58.391Z,21.92
2022-08-29T23:25:01.197Z,21.87
2022-08-29T23:27:03.912Z,21.85
2022-08-29T23:29:07.962Z,21.78
2022-08-29T23:31:10.614Z,21.65
2022-08-29T23:33:13.318Z,21.65
2022-08-29T23:35:15.900Z,21.69
2022-08-29T23:37:18.569Z,21.77
2022-08-29T23:39:21.220Z,21.79
2022-08-29T23:41:24.017Z,21.77
2022-08-29T23:43:27.810Z,21.73
2022-08-29T23:45:32.523Z,21.77
2022-08-29T23:47:36.094Z,21.79
2022-08-29T23:49:38.757Z,21.79
2022-08-29T23:51:41.368Z,21.81
2022-08-29T23:53:45.675Z,21.80
2022-08-29T23:55:48.522Z,21.76
2022-08-29T23:57:51.120Z,21.74
